Station Historical Data
Daily Summary for January 12, 2018 Units:  Both    English   Metric
« Previous Day
Next Day »
Daily Weekly Monthly Yearly Custom
  High: Low: Average:
Temperature: 60.8 °F /  16 °C 53.6 °F /  12 °C 57.7 °F /  14.3 °C
Dew Point: 60.5 °F /  15.8 °C 52.2 °F /  11.2 °C 57.2 °F /  14 °C
Humidity: 99 % 95 % 98 %
Wind Speed: 7.0 mph /  11.3 km/h - 1.2 mph /  1.9 km/h
Wind Gust: 13.0 mph /  20.9 km/h - -
Wind:- - East
Pressure: 30.14 in /  1020.5 hPa 29.49 in /  998.5 hPa -
Precipitation: 0.47 in /  11.94 mm    
Historical Graphs
 
 
Tabular Data for January 12, 2018
Time Temperature Dew Point Pressure Wind Wind Speed Wind Gust Humidity Rainfall Rate (Hourly)
00:00 55.8 °F /  13.2 °C 54.4 °F /  12.4 °C 30.14 in /  1020.5 hPa Calm   3.0 mph /  4.8 km/h 95 % 0.00 in /  0 mm
00:05 55.8 °F /  13.2 °C 54.4 °F /  12.4 °C 30.14 in /  1020.5 hPa Calm   2.0 mph /  3.2 km/h 95 % 0.00 in /  0 mm
00:10 55.9 °F /  13.3 °C 54.5 °F /  12.5 °C 30.13 in /  1020.2 hPa Calm   3.0 mph /  4.8 km/h 95 % 0.00 in /  0 mm
00:21 56.0 °F /  13.3 °C 54.5 °F /  12.5 °C 30.13 in /  1020.2 hPa Calm   5.0 mph /  8 km/h 95 % 0.00 in /  0 mm
00:34 56.0 °F /  13.3 °C 54.5 °F /  12.5 °C 30.12 in /  1019.9 hPa Calm   5.0 mph /  8 km/h 95 % 0.00 in /  0 mm
00:39 56.0 °F /  13.3 °C 54.5 °F /  12.5 °C 30.12 in /  1019.9 hPa Calm   5.0 mph /  8 km/h 95 % 0.00 in /  0 mm
00:56 55.7 °F /  13.2 °C 54.3 °F /  12.4 °C 30.11 in /  1019.5 hPa Calm   3.0 mph /  4.8 km/h 95 % 0.00 in /  0 mm
01:05 55.5 °F /  13.1 °C 54.1 °F /  12.3 °C 30.10 in /  1019.2 hPa ESE 1.0 mph /  1.6 km/h 3.0 mph /  4.8 km/h 95 % 0.00 in /  0 mm
01:10 55.3 °F /  12.9 °C 53.9 °F /  12.2 °C 30.09 in /  1018.8 hPa ESE 2.0 mph /  3.2 km/h 7.0 mph /  11.3 km/h 95 % 0.00 in /  0 mm
01:28 54.2 °F /  12.3 °C 52.8 °F /  11.6 °C 30.09 in /  1018.8 hPa East 3.0 mph /  4.8 km/h 7.0 mph /  11.3 km/h 95 % 0.00 in /  0 mm
01:40 53.8 °F /  12.1 °C 52.4 °F /  11.3 °C 30.08 in /  1018.5 hPa Calm   7.0 mph /  11.3 km/h 95 % 0.00 in /  0 mm
01:53 53.6 °F /  12 °C 52.2 °F /  11.2 °C 30.08 in /  1018.5 hPa Calm   5.0 mph /  8 km/h 95 % 0.00 in /  0 mm
02:07 53.7 °F /  12.1 °C 52.6 °F /  11.4 °C 30.07 in /  1018.2 hPa ESE 2.0 mph /  3.2 km/h 6.0 mph /  9.7 km/h 96 % 0.00 in /  0 mm
02:28 55.0 °F /  12.8 °C 54.1 °F /  12.3 °C 30.06 in /  1017.8 hPa East 3.0 mph /  4.8 km/h 7.0 mph /  11.3 km/h 97 % 0.00 in /  0 mm
02:53 55.2 °F /  12.9 °C 54.3 °F /  12.4 °C 30.04 in /  1017.2 hPa Calm   9.0 mph /  14.5 km/h 97 % 0.00 in /  0 mm
02:59 55.2 °F /  12.9 °C 54.3 °F /  12.4 °C 30.03 in /  1016.8 hPa ENE 4.0 mph /  6.4 km/h 5.0 mph /  8 km/h 97 % 0.00 in /  0 mm
03:13 55.3 °F /  12.9 °C 54.4 °F /  12.4 °C 30.02 in /  1016.5 hPa ESE 3.0 mph /  4.8 km/h 10.0 mph /  16.1 km/h 97 % 0.00 in /  0 mm
03:18 55.4 °F /  13 °C 54.5 °F /  12.5 °C 30.02 in /  1016.5 hPa East 2.0 mph /  3.2 km/h 10.0 mph /  16.1 km/h 97 % 0.00 in /  0 mm
03:24 55.4 °F /  13 °C 54.8 °F /  12.7 °C 30.01 in /  1016.1 hPa SE 1.0 mph /  1.6 km/h 8.0 mph /  12.9 km/h 98 % 0.00 in /  0 mm
03:36 55.5 °F /  13.1 °C 54.9 °F /  12.7 °C 30.01 in /  1016.1 hPa East 2.0 mph /  3.2 km/h 7.0 mph /  11.3 km/h 98 % 0.00 in /  0 mm
03:43 55.7 °F /  13.2 °C 55.1 °F /  12.8 °C 30.00 in /  1015.8 hPa NNE 2.0 mph /  3.2 km/h 8.0 mph /  12.9 km/h 98 % 0.00 in /  0 mm
03:51 56.1 °F /  13.4 °C 55.5 °F /  13.1 °C 29.99 in /  1015.5 hPa East 1.0 mph /  1.6 km/h 9.0 mph /  14.5 km/h 98 % 0.00 in /  0 mm
04:03 56.8 °F /  13.8 °C 56.2 °F /  13.4 °C 29.99 in /  1015.5 hPa East 1.0 mph /  1.6 km/h 8.0 mph /  12.9 km/h 98 % 0.00 in /  0 mm
04:08 57.1 °F /  13.9 °C 56.5 °F /  13.6 °C 29.98 in /  1015.1 hPa ENE 1.0 mph /  1.6 km/h 8.0 mph /  12.9 km/h 98 % 0.00 in /  0 mm
04:15 57.3 °F /  14.1 °C 56.7 °F /  13.7 °C 29.98 in /  1015.1 hPa SE 1.0 mph /  1.6 km/h 6.0 mph /  9.7 km/h 98 % 0.00 in /  0 mm
04:21 57.6 °F /  14.2 °C 57.0 °F /  13.9 °C 29.97 in /  1014.8 hPa East 3.0 mph /  4.8 km/h 7.0 mph /  11.3 km/h 98 % 0.00 in /  0 mm
04:26 57.8 °F /  14.3 °C 57.2 °F /  14 °C 29.97 in /  1014.8 hPa SE 7.0 mph /  11.3 km/h 9.0 mph /  14.5 km/h 98 % 0.00 in /  0 mm
04:37 58.1 °F /  14.5 °C 57.5 °F /  14.2 °C 29.96 in /  1014.4 hPa ESE 1.0 mph /  1.6 km/h 11.0 mph /  17.7 km/h 98 % 0.00 in /  0 mm
04:43 58.1 °F /  14.5 °C 57.5 °F /  14.2 °C 29.96 in /  1014.4 hPa East 1.0 mph /  1.6 km/h 11.0 mph /  17.7 km/h 98 % 0.00 in /  0 mm
04:52 58.3 °F /  14.6 °C 57.7 °F /  14.3 °C 29.96 in /  1014.4 hPa East 1.0 mph /  1.6 km/h 11.0 mph /  17.7 km/h 98 % 0.01 in /  0.25 mm
04:59 58.4 °F /  14.7 °C 57.8 °F /  14.3 °C 29.95 in /  1014.1 hPa NNE 4.0 mph /  6.4 km/h 9.0 mph /  14.5 km/h 98 % 0.03 in /  0.76 mm
05:06 58.4 °F /  14.7 °C 57.8 °F /  14.3 °C 29.95 in /  1014.1 hPa SSE 1.0 mph /  1.6 km/h 9.0 mph /  14.5 km/h 98 % 0.04 in /  1.02 mm
05:12 58.3 °F /  14.6 °C 57.7 °F /  14.3 °C 29.95 in /  1014.1 hPa South 1.0 mph /  1.6 km/h 8.0 mph /  12.9 km/h 98 % 0.04 in /  1.02 mm
05:21 58.2 °F /  14.6 °C 57.6 °F /  14.2 °C 29.95 in /  1014.1 hPa Calm   10.0 mph /  16.1 km/h 98 % 0.05 in /  1.27 mm
05:27 58.2 °F /  14.6 °C 57.6 °F /  14.2 °C 29.95 in /  1014.1 hPa ENE 1.0 mph /  1.6 km/h 10.0 mph /  16.1 km/h 98 % 0.05 in /  1.27 mm
05:52 58.2 °F /  14.6 °C 57.6 °F /  14.2 °C 29.94 in /  1013.8 hPa East 2.0 mph /  3.2 km/h 13.0 mph /  20.9 km/h 98 % 0.05 in /  1.27 mm
06:09 57.8 °F /  14.3 °C 57.2 °F /  14 °C 29.94 in /  1013.8 hPa ESE 2.0 mph /  3.2 km/h 8.0 mph /  12.9 km/h 98 % 0.03 in /  0.76 mm
06:23 57.8 °F /  14.3 °C 57.2 °F /  14 °C 29.93 in /  1013.4 hPa ESE 1.0 mph /  1.6 km/h 10.0 mph /  16.1 km/h 98 % 0.03 in /  0.76 mm
06:28 57.8 °F /  14.3 °C 57.2 °F /  14 °C 29.93 in /  1013.4 hPa East 3.0 mph /  4.8 km/h 10.0 mph /  16.1 km/h 98 % 0.04 in /  1.02 mm
06:35 57.7 °F /  14.3 °C 57.1 °F /  13.9 °C 29.93 in /  1013.4 hPa Calm   8.0 mph /  12.9 km/h 98 % 0.04 in /  1.02 mm
06:48 57.6 °F /  14.2 °C 57.0 °F /  13.9 °C 29.93 in /  1013.4 hPa East 1.0 mph /  1.6 km/h 6.0 mph /  9.7 km/h 98 % 0.04 in /  1.02 mm
06:54 57.4 °F /  14.1 °C 56.8 °F /  13.8 °C 29.93 in /  1013.4 hPa Calm   6.0 mph /  9.7 km/h 98 % 0.03 in /  0.76 mm
07:05 57.1 °F /  13.9 °C 56.5 °F /  13.6 °C 29.93 in /  1013.4 hPa SSE 2.0 mph /  3.2 km/h 5.0 mph /  8 km/h 98 % 0.05 in /  1.27 mm
07:10 57.1 °F /  13.9 °C 56.5 °F /  13.6 °C 29.93 in /  1013.4 hPa Calm   5.0 mph /  8 km/h 98 % 0.06 in /  1.52 mm
07:25 57.2 °F /  14 °C 56.6 °F /  13.7 °C 29.92 in /  1013.1 hPa ENE 2.0 mph /  3.2 km/h 8.0 mph /  12.9 km/h 98 % 0.11 in /  2.79 mm
07:31 57.5 °F /  14.2 °C 56.9 °F /  13.8 °C 29.92 in /  1013.1 hPa ESE 4.0 mph /  6.4 km/h 8.0 mph /  12.9 km/h 98 % 0.11 in /  2.79 mm
07:56 58.2 °F /  14.6 °C 57.9 °F /  14.4 °C 29.91 in /  1012.8 hPa ENE 3.0 mph /  4.8 km/h 10.0 mph /  16.1 km/h 99 % 0.12 in /  3.05 mm
08:07 58.1 °F /  14.5 °C 57.5 °F /  14.2 °C 29.91 in /  1012.8 hPa East 2.0 mph /  3.2 km/h 9.0 mph /  14.5 km/h 98 % 0.10 in /  2.54 mm
08:49 56.7 °F /  13.7 °C 56.1 °F /  13.4 °C 29.90 in /  1012.4 hPa Calm   5.0 mph /  8 km/h 98 % 0.00 in /  0 mm
09:02 57.1 °F /  13.9 °C 56.5 °F /  13.6 °C 29.90 in /  1012.4 hPa East 1.0 mph /  1.6 km/h 5.0 mph /  8 km/h 98 % 0.00 in /  0 mm
09:11 57.5 °F /  14.2 °C 57.2 °F /  14 °C 29.89 in /  1012.1 hPa Calm   6.0 mph /  9.7 km/h 99 % 0.00 in /  0 mm
09:22 57.9 °F /  14.4 °C 57.6 °F /  14.2 °C 29.90 in /  1012.4 hPa ENE 2.0 mph /  3.2 km/h 4.0 mph /  6.4 km/h 99 % 0.00 in /  0 mm
09:27 58.0 °F /  14.4 °C 57.7 °F /  14.3 °C 29.90 in /  1012.4 hPa Calm   7.0 mph /  11.3 km/h 99 % 0.00 in /  0 mm
09:43 58.0 °F /  14.4 °C 57.7 °F /  14.3 °C 29.89 in /  1012.1 hPa SE 5.0 mph /  8 km/h 7.0 mph /  11.3 km/h 99 % 0.00 in /  0 mm
09:53 57.6 °F /  14.2 °C 57.0 °F /  13.9 °C 29.89 in /  1012.1 hPa East 2.0 mph /  3.2 km/h 6.0 mph /  9.7 km/h 98 % 0.00 in /  0 mm
10:18 57.2 °F /  14 °C 56.6 °F /  13.7 °C 29.89 in /  1012.1 hPa Calm   6.0 mph /  9.7 km/h 98 % 0.00 in /  0 mm
10:26 57.4 °F /  14.1 °C 57.1 °F /  13.9 °C 29.89 in /  1012.1 hPa East 1.0 mph /  1.6 km/h 3.0 mph /  4.8 km/h 99 % 0.01 in /  0.25 mm
10:39 57.3 °F /  14.1 °C 57.0 °F /  13.9 °C 29.89 in /  1012.1 hPa Calm   5.0 mph /  8 km/h 99 % 0.03 in /  0.76 mm
10:50 57.5 °F /  14.2 °C 57.2 °F /  14 °C 29.87 in /  1011.4 hPa ESE 1.0 mph /  1.6 km/h 3.0 mph /  4.8 km/h 99 % 0.04 in /  1.02 mm
10:55 57.6 °F /  14.2 °C 57.3 °F /  14.1 °C 29.87 in /  1011.4 hPa SE 2.0 mph /  3.2 km/h 5.0 mph /  8 km/h 99 % 0.05 in /  1.27 mm
11:07 57.6 °F /  14.2 °C 57.3 °F /  14.1 °C 29.87 in /  1011.4 hPa Calm   5.0 mph /  8 km/h 99 % 0.06 in /  1.52 mm
11:13 57.5 °F /  14.2 °C 57.2 °F /  14 °C 29.86 in /  1011.1 hPa Calm   5.0 mph /  8 km/h 99 % 0.07 in /  1.78 mm
11:34 58.1 °F /  14.5 °C 57.8 °F /  14.3 °C 29.85 in /  1010.7 hPa Calm   5.0 mph /  8 km/h 99 % 0.07 in /  1.78 mm
11:49 58.5 °F /  14.7 °C 58.2 °F /  14.6 °C 29.83 in /  1010 hPa Calm   4.0 mph /  6.4 km/h 99 % 0.06 in /  1.52 mm
11:57 58.7 °F /  14.8 °C 58.4 °F /  14.7 °C 29.83 in /  1010 hPa Calm   3.0 mph /  4.8 km/h 99 % 0.05 in /  1.27 mm
12:16 58.9 °F /  14.9 °C 58.6 °F /  14.8 °C 29.81 in /  1009.4 hPa Calm   2.0 mph /  3.2 km/h 99 % 0.02 in /  0.51 mm
12:27 58.8 °F /  14.9 °C 58.5 °F /  14.7 °C 29.81 in /  1009.4 hPa Calm   3.0 mph /  4.8 km/h 99 % 0.01 in /  0.25 mm
12:44 59.2 °F /  15.1 °C 58.9 °F /  14.9 °C 29.80 in /  1009 hPa Calm   6.0 mph /  9.7 km/h 99 % 0.00 in /  0 mm
12:50 59.4 °F /  15.2 °C 59.1 °F /  15.1 °C 29.79 in /  1008.7 hPa Calm   6.0 mph /  9.7 km/h 99 % 0.00 in /  0 mm
12:55 59.6 °F /  15.3 °C 59.3 °F /  15.2 °C 29.79 in /  1008.7 hPa ESE 1.0 mph /  1.6 km/h 5.0 mph /  8 km/h 99 % 0.00 in /  0 mm
13:14 59.7 °F /  15.4 °C 59.4 °F /  15.2 °C 29.78 in /  1008.4 hPa ENE 1.0 mph /  1.6 km/h 4.0 mph /  6.4 km/h 99 % 0.00 in /  0 mm
13:24 59.8 °F /  15.4 °C 59.5 °F /  15.3 °C 29.77 in /  1008 hPa ESE 2.0 mph /  3.2 km/h 5.0 mph /  8 km/h 99 % 0.00 in /  0 mm
13:48 60.3 °F /  15.7 °C 60.0 °F /  15.6 °C 29.76 in /  1007.7 hPa Calm   4.0 mph /  6.4 km/h 99 % 0.00 in /  0 mm
13:55 60.5 °F /  15.8 °C 60.2 °F /  15.7 °C 29.75 in /  1007.3 hPa Calm   4.0 mph /  6.4 km/h 99 % 0.00 in /  0 mm
14:08 60.7 °F /  15.9 °C 60.4 °F /  15.8 °C 29.75 in /  1007.3 hPa East 2.0 mph /  3.2 km/h 5.0 mph /  8 km/h 99 % 0.00 in /  0 mm
14:14 60.8 °F /  16 °C 60.5 °F /  15.8 °C 29.74 in /  1007 hPa Calm   5.0 mph /  8 km/h 99 % 0.00 in /  0 mm
14:47 60.5 °F /  15.8 °C 60.2 °F /  15.7 °C 29.73 in /  1006.7 hPa East 3.0 mph /  4.8 km/h 10.0 mph /  16.1 km/h 99 % 0.00 in /  0 mm
14:53 60.5 °F /  15.8 °C 60.2 °F /  15.7 °C 29.73 in /  1006.7 hPa East 1.0 mph /  1.6 km/h 10.0 mph /  16.1 km/h 99 % 0.00 in /  0 mm
15:09 59.9 °F /  15.5 °C 59.3 °F /  15.2 °C 29.73 in /  1006.7 hPa Calm   6.0 mph /  9.7 km/h 98 % 0.00 in /  0 mm
15:37 58.3 °F /  14.6 °C 57.7 °F /  14.3 °C 29.74 in /  1007 hPa Calm   8.0 mph /  12.9 km/h 98 % 0.00 in /  0 mm
15:45 58.2 °F /  14.6 °C 57.6 °F /  14.2 °C 29.73 in /  1006.7 hPa ESE 1.0 mph /  1.6 km/h 5.0 mph /  8 km/h 98 % 0.00 in /  0 mm
15:52 58.1 °F /  14.5 °C 57.5 °F /  14.2 °C 29.72 in /  1006.3 hPa Calm   4.0 mph /  6.4 km/h 98 % 0.00 in /  0 mm
16:01 58.2 °F /  14.6 °C 57.6 °F /  14.2 °C 29.72 in /  1006.3 hPa Calm   5.0 mph /  8 km/h 98 % 0.00 in /  0 mm
16:07 58.0 °F /  14.4 °C 57.4 °F /  14.1 °C 29.72 in /  1006.3 hPa East 1.0 mph /  1.6 km/h 5.0 mph /  8 km/h 98 % 0.00 in /  0 mm
16:14 57.9 °F /  14.4 °C 57.3 °F /  14.1 °C 29.72 in /  1006.3 hPa East 1.0 mph /  1.6 km/h 5.0 mph /  8 km/h 98 % 0.00 in /  0 mm
16:39 58.2 °F /  14.6 °C 57.9 °F /  14.4 °C 29.71 in /  1006 hPa SE 1.0 mph /  1.6 km/h 5.0 mph /  8 km/h 99 % 0.00 in /  0 mm
16:54 58.3 °F /  14.6 °C 58.0 °F /  14.4 °C 29.70 in /  1005.6 hPa Calm   5.0 mph /  8 km/h 99 % 0.00 in /  0 mm
17:00 58.4 °F /  14.7 °C 58.1 °F /  14.5 °C 29.70 in /  1005.6 hPa ESE 2.0 mph /  3.2 km/h 5.0 mph /  8 km/h 99 % 0.00 in /  0 mm
17:22 58.4 °F /  14.7 °C 58.1 °F /  14.5 °C 29.70 in /  1005.6 hPa East 2.0 mph /  3.2 km/h 7.0 mph /  11.3 km/h 99 % 0.01 in /  0.25 mm
17:44 57.5 °F /  14.2 °C 56.9 °F /  13.8 °C 29.69 in /  1005.3 hPa East 3.0 mph /  4.8 km/h 5.0 mph /  8 km/h 98 % 0.02 in /  0.51 mm
17:59 57.6 °F /  14.2 °C 57.3 °F /  14.1 °C 29.68 in /  1005 hPa East 2.0 mph /  3.2 km/h 9.0 mph /  14.5 km/h 99 % 0.03 in /  0.76 mm
18:06 57.9 °F /  14.4 °C 57.6 °F /  14.2 °C 29.68 in /  1005 hPa Calm   9.0 mph /  14.5 km/h 99 % 0.03 in /  0.76 mm
18:15 58.0 °F /  14.4 °C 57.7 °F /  14.3 °C 29.67 in /  1004.6 hPa East 1.0 mph /  1.6 km/h 8.0 mph /  12.9 km/h 99 % 0.03 in /  0.76 mm
18:21 57.9 °F /  14.4 °C 57.6 °F /  14.2 °C 29.66 in /  1004.3 hPa East 3.0 mph /  4.8 km/h 7.0 mph /  11.3 km/h 99 % 0.03 in /  0.76 mm
18:37 57.6 °F /  14.2 °C 57.3 °F /  14.1 °C 29.66 in /  1004.3 hPa Calm   7.0 mph /  11.3 km/h 99 % 0.03 in /  0.76 mm
18:50 57.8 °F /  14.3 °C 57.5 °F /  14.2 °C 29.65 in /  1003.9 hPa East 2.0 mph /  3.2 km/h 8.0 mph /  12.9 km/h 99 % 0.06 in /  1.52 mm
19:21 58.3 °F /  14.6 °C 58.0 °F /  14.4 °C 29.64 in /  1003.6 hPa Calm   8.0 mph /  12.9 km/h 99 % 0.08 in /  2.03 mm
19:33 58.3 °F /  14.6 °C 58.0 °F /  14.4 °C 29.63 in /  1003.3 hPa East 5.0 mph /  8 km/h 5.0 mph /  8 km/h 99 % 0.08 in /  2.03 mm
19:41 58.6 °F /  14.8 °C 58.3 °F /  14.6 °C 29.62 in /  1002.9 hPa ENE 3.0 mph /  4.8 km/h 5.0 mph /  8 km/h 99 % 0.07 in /  1.78 mm
20:05 59.3 °F /  15.2 °C 59.0 °F /  15 °C 29.61 in /  1002.6 hPa Calm   5.0 mph /  8 km/h 99 % 0.00 in /  0 mm
20:10 59.4 °F /  15.2 °C 59.1 °F /  15.1 °C 29.61 in /  1002.6 hPa Calm   5.0 mph /  8 km/h 99 % 0.00 in /  0 mm
20:29 59.5 °F /  15.3 °C 59.2 °F /  15.1 °C 29.60 in /  1002.3 hPa East 1.0 mph /  1.6 km/h 5.0 mph /  8 km/h 99 % 0.00 in /  0 mm
20:42 59.5 °F /  15.3 °C 59.2 °F /  15.1 °C 29.59 in /  1001.9 hPa Calm   5.0 mph /  8 km/h 99 % 0.01 in /  0.25 mm
20:50 59.5 °F /  15.3 °C 59.2 °F /  15.1 °C 29.59 in /  1001.9 hPa SE 1.0 mph /  1.6 km/h 5.0 mph /  8 km/h 99 % 0.01 in /  0.25 mm
20:56 59.7 °F /  15.4 °C 59.4 °F /  15.2 °C 29.60 in /  1002.3 hPa ESE 1.0 mph /  1.6 km/h 4.0 mph /  6.4 km/h 99 % 0.01 in /  0.25 mm
21:24 59.7 °F /  15.4 °C 59.4 °F /  15.2 °C 29.59 in /  1001.9 hPa ESE 2.0 mph /  3.2 km/h 3.0 mph /  4.8 km/h 99 % 0.01 in /  0.25 mm
21:30 59.8 °F /  15.4 °C 59.5 °F /  15.3 °C 29.58 in /  1001.6 hPa Calm   3.0 mph /  4.8 km/h 99 % 0.01 in /  0.25 mm
21:38 59.7 °F /  15.4 °C 59.4 °F /  15.2 °C 29.58 in /  1001.6 hPa Calm   5.0 mph /  8 km/h 99 % 0.00 in /  0 mm
21:51 59.7 °F /  15.4 °C 59.4 °F /  15.2 °C 29.55 in /  1000.6 hPa East 1.0 mph /  1.6 km/h 9.0 mph /  14.5 km/h 99 % 0.00 in /  0 mm
21:56 59.5 °F /  15.3 °C 59.2 °F /  15.1 °C 29.55 in /  1000.6 hPa ESE 1.0 mph /  1.6 km/h 9.0 mph /  14.5 km/h 99 % 0.00 in /  0 mm
22:02 59.4 °F /  15.2 °C 59.1 °F /  15.1 °C 29.56 in /  1000.9 hPa Calm   9.0 mph /  14.5 km/h 99 % 0.00 in /  0 mm
22:07 59.1 °F /  15.1 °C 58.8 °F /  14.9 °C 29.55 in /  1000.6 hPa ESE 1.0 mph /  1.6 km/h 6.0 mph /  9.7 km/h 99 % 0.00 in /  0 mm
22:26 58.1 °F /  14.5 °C 57.8 °F /  14.3 °C 29.54 in /  1000.2 hPa Calm   4.0 mph /  6.4 km/h 99 % 0.00 in /  0 mm
22:37 57.5 °F /  14.2 °C 57.2 °F /  14 °C 29.53 in /  999.9 hPa East 6.0 mph /  9.7 km/h 6.0 mph /  9.7 km/h 99 % 0.00 in /  0 mm
22:48 56.6 °F /  13.7 °C 56.0 °F /  13.3 °C 29.52 in /  999.5 hPa ESE 1.0 mph /  1.6 km/h 7.0 mph /  11.3 km/h 98 % 0.00 in /  0 mm
22:53 56.4 °F /  13.6 °C 55.8 °F /  13.2 °C 29.52 in /  999.5 hPa Calm   7.0 mph /  11.3 km/h 98 % 0.00 in /  0 mm
23:01 56.1 °F /  13.4 °C 55.8 °F /  13.2 °C 29.53 in /  999.9 hPa Calm   3.0 mph /  4.8 km/h 99 % 0.00 in /  0 mm
23:13 56.1 °F /  13.4 °C 55.8 °F /  13.2 °C 29.52 in /  999.5 hPa Calm   3.0 mph /  4.8 km/h 99 % 0.00 in /  0 mm
23:25 56.1 °F /  13.4 °C 55.8 °F /  13.2 °C 29.51 in /  999.2 hPa ESE 2.0 mph /  3.2 km/h 5.0 mph /  8 km/h 99 % 0.01 in /  0.25 mm
23:33 56.6 °F /  13.7 °C 56.3 °F /  13.5 °C 29.50 in /  998.9 hPa Calm   5.0 mph /  8 km/h 99 % 0.01 in /  0.25 mm
23:40 56.9 °F /  13.8 °C 56.6 °F /  13.7 °C 29.49 in /  998.5 hPa ESE 2.0 mph /  3.2 km/h 5.0 mph /  8 km/h 99 % 0.01 in /  0.25 mm
23:55 56.6 °F /  13.7 °C 56.3 °F /  13.5 °C 29.49 in /  998.5 hPa ESE 1.0 mph /  1.6 km/h 7.0 mph /  11.3 km/h 99 % 0.02 in /  0.51 mm
MarylandWx.com
Compliments of Weather Underground - 5.5 mb